LFBULFBI

Guest
Details From LFBU - Angouleme Brie Champniers
To LFBI - Poitiers Biard
Flight Number -
Tags generated
Created
Modified
Stats Distance 52 nm / 96 km
Max Altitude 100 ft / 30 m
Waypoints 3
Social Downloads 0
Likes 0
Share VATSIM

Download

Looking for another format? Having issues loading an existing format? Contact us
Advertisement - Login to hide

Notes

Basic altitude profile: - Ascent Rate: 2500ft/min - Ascent Speed: 250kts - Cruise Altitude: 35000ft - Cruise Speed: 420kts - Descent Rate: 1500ft/min - Descent Speed: 250kts Options: - Use NATs: yes - Use PACOTS: yes - Use low airways: yes - Use high airways: no

Route

LFBU POI LFBI

ID Type Via Altitude Latitude Longitude Leg Dist Tot Dist Heading (true) Name
O LFBU APT - 0 ft / 0 m 45.72951˚ 0.21867˚ - 0 nm - Angouleme Brie Champniers
POI VOR - 100 ft / 30 m 46.58100˚ 0.29819˚ 51 nm 51 nm 4° / 4° POITIERS BIARD VOR
O LFBI APT - 0 ft / 0 m 46.58874˚ 0.30794˚ 0 nm 51 nm 41° / 41° Poitiers Biard

Altitude Profile

Advertisement - Login to hide

LFBU

Details ICAO LFBU (ANG)
Name Angouleme Brie Champniers
Region France
Timezone Europe/Paris (UTC+1.0)
Stats Elevation 436 ft / 133 m (AMSL)
Location 45.729515° 0.218672°
Runways 1
Magnetic Variation 0.152° E

METAR

LFBU 140200Z AUTO 25008KT 9999 FEW023 SCT060 OVC160 10/07 Q1012

Decode

TAF

TAF AMD LFBU 132100Z 1321/1418 CNL

Decode

Departure Runways

ID Width Length Bearing (true) Bearing (mag) Surface Threshold Offset Overrun Length
10 148 ft / 45 m 5,923 ft / 1,805 m 96.94° 96.79° Asphalt 0 ft / 0 m 1,805 ft / 550 m
28 148 ft / 45 m 5,923 ft / 1,805 m 276.96° 276.81° Asphalt 0 ft / 0 m 1,375 ft / 419 m

LFBI

Details ICAO LFBI (PIS)
Name Poitiers Biard
Region France
Timezone Europe/Paris (UTC+1.0)
Stats Elevation 423 ft / 129 m (AMSL)
Location 46.588739° 0.307939°
Runways 1
Magnetic Variation 0.123° E

METAR

LFBI 140200Z AUTO 26012KT 9999 FEW015 SCT038 BKN045 09/07 Q1009 TEMPO 3000 SHRA BECMG 25015G25KT

Decode

TAF

TAF LFBI 132300Z 1400/1424 25015G25KT 9999 BKN025 TEMPO 1400/1409 3000 SHRA PROB30 TEMPO 1406/1409 RA BKN012 TEMPO 1411/1418 24020G40KT 3000 SHRA BKN015TCU

Decode

Destination Runways

ID Width Length Bearing (true) Bearing (mag) Surface Threshold Offset Overrun Length
03 148 ft / 45 m 7,725 ft / 2,355 m 30.51° 30.39° Asphalt 0 ft / 0 m 164 ft / 50 m
21 148 ft / 45 m 7,725 ft / 2,355 m 210.53° 210.41° Asphalt 0 ft / 0 m 0 ft / 0 m

Approach Navaids

Runway Type Ident Frequency Range Bearing (true) Bearing (mag) Slope Elevation
21 Localiser PT 110.95 MHz 18 nm / 33 km 210.51° 210.39° - 412 ft / 126 m (AMSL)
21 Glidescope PT 110.95 MHz 10 nm / 19 km 210.52° 210.40° 3.00° 412 ft / 126 m (AMSL)
21 DME PT 110.95 MHz 18 nm / 33 km - - - 455 ft / 139 m (AMSL)